Site contains unofficial IBTrACS data. Visit the IBTrACS Website to access archived data.

1877 Severe Cyclonic Storm NOT_NAMED (1877135N10083)


IBTrACS version v04r00. Visit IBTrACS website for data access.
Please direct all questions to the IBTrACS Q and A forum

Storm track - Intensity - Wind Radii - Intensity Data - Source Data - All data

Summary Information

Storm ID 1877135N10083
Start May 15 00Z
Landfall May 18 15Z
Max Intensity 64 kt (May 15 03Z)
End May 22 03Z
ATCF IDs
Track status Best track data.

Storm track plot

Map of storm track

Intensity plots

Map of storm track

Radial wind information

No radial wind information for this storm


Position and Intensity Table

BASIN ISO_TIME_________ NATURE LAT LON DS824 WIND
degrees north degrees east kts
NI 1877-05-15 00:00:00 TS 9.90 82.90 64
NI 03:00:00 TS 9.96 82.83 64
NI 06:00:00 TS 10.07 82.74 64
NI 09:00:00 TS 10.21 82.64 64
NI 12:00:00 TS 10.35 82.54 64
NI 15:00:00 TS 10.45 82.45 64
NI 18:00:00 TS 10.55 82.36 64
NI 21:00:00 TS 10.64 82.31 64
NI 1877-05-16 00:00:00 TS 10.74 82.25 64
NI 03:00:00 TS 10.87 82.13 64
NI 06:00:00 TS 11.03 81.98 64
NI 09:00:00 TS 11.21 81.82 64
NI 12:00:00 TS 11.41 81.67 64
NI 15:00:00 TS 11.57 81.54 64
NI 18:00:00 TS 11.73 81.46 64
NI 21:00:00 TS 11.91 81.40 64
NI 1877-05-17 00:00:00 TS 12.10 81.34 64
NI 03:00:00 TS 12.32 81.26 64
NI 06:00:00 TS 12.56 81.14 64
NI 09:00:00 TS 12.81 81.00 64
NI 12:00:00 TS 13.07 80.86 64
NI 15:00:00 TS 13.32 80.74 56
NI 18:00:00 TS 13.58 80.65 49
NI 21:00:00 TS 13.85 80.57 41
NI 1877-05-18 00:00:00 TS 14.15 80.52 34
NI 03:00:00 TS 14.47 80.49 33
NI 06:00:00 TS 14.82 80.49 32
NI 09:00:00 TS 15.17 80.51 31
NI 12:00:00 TS 15.52 80.56 30
NI 15:00:00 TS 15.88 80.64 30
NI 18:00:00 TS 16.21 80.74 30
NI 21:00:00 TS 16.52 80.91 30
NI 1877-05-19 00:00:00 TS 16.83 81.16 30
NI 03:00:00 TS 17.20 81.51 30
NI 06:00:00 TS 17.58 81.95 30
NI 09:00:00 TS 17.95 82.44 30
NI 12:00:00 TS 18.31 82.95 30
NI 15:00:00 TS 18.67 83.43 30
NI 18:00:00 TS 19.04 83.87 30
NI 21:00:00 TS 19.42 84.29 30
NI 1877-05-20 00:00:00 TS 19.81 84.70 30
NI 03:00:00 TS 20.20 85.10 30
NI 06:00:00 TS 20.59 85.51 30
NI 09:00:00 TS 20.98 85.89 30
NI 12:00:00 TS 21.39 86.24 30
NI 15:00:00 TS 21.82 86.57 30
NI 18:00:00 TS 22.30 86.85 30
NI 21:00:00 TS 22.82 87.07 30
NI 1877-05-21 00:00:00 TS 23.30 87.23 30
NI 03:00:00 TS 23.62 87.34 30
NI 06:00:00 TS 23.84 87.39 30
NI 09:00:00 TS 24.03 87.41 30
NI 12:00:00 TS 24.22 87.41 30
NI 15:00:00 TS 24.42 87.40 30
NI 18:00:00 TS 24.62 87.39 30
NI 21:00:00 TS 24.83 87.39 30
NI 1877-05-22 00:00:00 TS 25.03 87.40 30
NI 03:00:00 NR 25.20 87.40

Source Information

Agency Information
USA
TOKYO
CMA
HKO
NEWDELHI
REUNION
BOM
NADI
WELLINGTON
DS824 n_ind.dat:1:NOT NAMED
TD9636 cons_worldwide_trop_cyclone_18710101-19891231-004:Line=33
TD9635
NEUMANN
MLC

All available IBTrACS Data

SEASON BASIN SUBBASIN ISO_TIME_________ NATURE LAT LON DIST2LAND LANDFALL IFLAG USA SSHS DS824 LAT DS824 LON DS824 STAGE DS824 WIND TD9636 LAT TD9636 LON TD9636 STAGE STORM SPEED STORM DIR
Year degrees north degrees east km km 1 degrees north degrees east kts degrees north degrees east kts degrees
1877 NI BB 1877-05-15 00:00:00 TS 9.90 82.90 230 221 _________O____ -1 9.90 82.90 TC 64 2 311
1877 NI BB 03:00:00 TS 9.96 82.83 228 226 _________PO___ -1 9.99 82.80 TC 64 9.90 82.90 4 2 317
1877 NI BB 06:00:00 TS 10.07 82.74 226 221 _________OP___ -1 10.10 82.70 TC 64 10.04 82.79 4 3 323
1877 NI BB 09:00:00 TS 10.21 82.64 221 217 _________PP___ -1 10.25 82.60 TC 64 10.17 82.68 4 3 325
1877 NI BB 12:00:00 TS 10.35 82.54 217 217 _________OP___ -1 10.40 82.50 TC 64 10.29 82.58 4 3 322
1877 NI BB 15:00:00 TS 10.45 82.45 220 220 _________PO___ -1 10.51 82.39 TC 64 10.40 82.50 4 3 320
1877 NI BB 18:00:00 TS 10.55 82.36 220 219 _________OP___ -1 10.60 82.30 TC 64 10.49 82.43 4 2 324
1877 NI BB 21:00:00 TS 10.64 82.31 219 219 _________PP___ -1 10.69 82.26 TC 64 10.58 82.36 4 2 328
1877 NI BB 1877-05-16 00:00:00 TS 10.74 82.25 219 219 _________OP___ -1 10.80 82.20 TC 64 10.68 82.29 4 3 323
1877 NI BB 03:00:00 TS 10.87 82.13 228 228 _________PO___ -1 10.94 82.07 TC 64 10.80 82.20 4 4 317
1877 NI BB 06:00:00 TS 11.03 81.98 229 207 _________OP___ -1 11.10 81.90 TC 64 10.95 82.06 4 5 318
1877 NI BB 09:00:00 TS 11.21 81.82 207 196 _________PP___ -1 11.30 81.74 TC 64 11.13 81.90 4 5 321
1877 NI BB 12:00:00 TS 11.41 81.67 197 173 _________OP___ -1 11.50 81.60 TC 64 11.31 81.74 4 5 323
1877 NI BB 15:00:00 TS 11.57 81.54 173 167 _________PO___ -1 11.65 81.48 TC 64 11.50 81.60 4 4 327
1877 NI BB 18:00:00 TS 11.73 81.46 167 146 _________OP___ -1 11.80 81.40 TC 64 11.66 81.51 4 4 337
1877 NI BB 21:00:00 TS 11.91 81.40 146 127 _________PP___ -1 11.98 81.35 TC 64 11.83 81.44 4 4 343
1877 NI BB 1877-05-17 00:00:00 TS 12.10 81.34 127 121 _________OP___ -1 12.20 81.30 TC 64 12.00 81.38 4 4 342
1877 NI BB 03:00:00 TS 12.32 81.26 121 97 _________PO___ -1 12.44 81.21 TC 64 12.20 81.30 4 5 337
1877 NI BB 06:00:00 TS 12.56 81.14 97 86 _________OP___ -1 12.70 81.10 TC 64 12.42 81.18 4 6 333
1877 NI BB 09:00:00 TS 12.81 81.00 86 68 _________PP___ -1 12.95 80.95 TC 64 12.67 81.05 4 6 331
1877 NI BB 12:00:00 TS 13.07 80.86 68 43 _________OP___ -1 13.20 80.80 TC 64 12.93 80.92 4 6 334
1877 NI BB 15:00:00 TS 13.32 80.74 43 43 _________PO___ -1 13.44 80.68 TC 56 13.20 80.80 4 6 338
1877 NI BB 18:00:00 TS 13.58 80.65 32 32 _________OP___ -1 13.70 80.60 TC 49 13.46 80.69 4 6 343
1877 NI BB 21:00:00 TS 13.85 80.57 34 24 _________PP___ -1 13.98 80.53 TC 41 13.72 80.61 4 6 348
1877 NI BB 1877-05-18 00:00:00 TS 14.15 80.52 39 34 _________OP___ -1 14.30 80.50 TC 34 14.00 80.54 4 6 352
1877 NI BB 03:00:00 TS 14.47 80.49 34 32 _________PO___ -1 14.64 80.49 TC 33 14.30 80.50 2 7 356
1877 NI BB 06:00:00 TS 14.82 80.49 39 39 _________OP___ -1 15.00 80.50 TC 32 14.63 80.47 2 7 2
1877 NI BB 09:00:00 TS 15.17 80.51 44 30 _________PP___ -1 15.35 80.54 TC 31 14.98 80.48 2 7 6
1877 NI BB 12:00:00 TS 15.52 80.56 30 0 _________OP___ -1 15.70 80.60 TC 30 15.34 80.52 2 7 10
1877 NI BB 15:00:00 TS 15.88 80.64 0 0 _________PO___ -1 16.06 80.67 TC 30 15.70 80.60 1 7 15
1877 NI BB 18:00:00 TS 16.21 80.74 0 0 _________OP___ -1 16.40 80.80 TC 30 16.02 80.68 1 7 22
1877 NI BB 21:00:00 TS 16.52 80.91 0 0 _________PP___ -1 16.69 81.00 TC 30 16.34 80.82 1 7 33
1877 NI BB 1877-05-19 00:00:00 TS 16.83 81.16 0 0 _________OP___ -1 17.00 81.30 TC 30 16.66 81.02 1 9 40
1877 NI BB 03:00:00 TS 17.20 81.51 0 0 _________PO___ -1 17.39 81.71 TC 30 17.00 81.30 1 11 45
1877 NI BB 06:00:00 TS 17.58 81.95 0 0 _________OP___ -1 17.80 82.20 TC 30 17.36 81.70 1 12 50
1877 NI BB 09:00:00 TS 17.95 82.44 0 0 _________PP___ -1 18.16 82.70 TC 30 17.74 82.17 1 12 53
1877 NI BB 12:00:00 TS 18.31 82.95 0 0 _________OP___ -1 18.50 83.20 TC 30 18.12 82.69 1 12 53
1877 NI BB 15:00:00 TS 18.67 83.43 0 0 _________PO___ -1 18.84 83.67 TC 30 18.50 83.20 1 11 50
1877 NI BB 18:00:00 TS 19.04 83.87 0 0 _________OP___ -1 19.20 84.10 TC 30 18.87 83.65 1 11 48
1877 NI BB 21:00:00 TS 19.42 84.29 0 0 _________PP___ -1 19.59 84.51 TC 30 19.24 84.08 1 11 45
1877 NI BB 1877-05-20 00:00:00 TS 19.81 84.70 0 0 _________OP___ -1 20.00 84.90 TC 30 19.62 84.50 1 11 44
1877 NI BB 03:00:00 TS 20.20 85.10 0 0 _________PO___ -1 20.40 85.31 TC 30 20.00 84.90 1 11 44
1877 NI BB 06:00:00 TS 20.59 85.51 0 0 _________OP___ -1 20.80 85.70 TC 30 20.38 85.31 1 11 43
1877 NI BB 09:00:00 TS 20.98 85.89 0 0 _________PP___ -1 21.19 86.07 TC 30 20.77 85.71 1 11 41
1877 NI BB 12:00:00 TS 21.39 86.24 0 0 _________OP___ -1 21.60 86.40 TC 30 21.17 86.08 1 11 37
1877 NI BB 15:00:00 TS 21.82 86.57 0 0 _________PO___ -1 22.04 86.73 TC 30 21.60 86.40 1 11 32
1877 NI BB 18:00:00 TS 22.30 86.85 0 0 _________OP___ -1 22.50 87.00 TC 30 22.10 86.70 1 11 25
1877 NI BB 21:00:00 TS 22.82 87.07 0 0 _________PP___ -1 23.04 87.19 TC 30 22.61 86.95 1 11 19
1877 NI BB 1877-05-21 00:00:00 TS 23.30 87.23 0 0 _________OP___ -1 23.50 87.30 TC 30 23.09 87.16 1 8 17
1877 NI BB 03:00:00 TS 23.62 87.34 0 0 _________PO___ -1 23.74 87.37 TC 30 23.50 87.30 1 6 16
1877 NI BB 06:00:00 TS 23.84 87.39 0 0 _________OP___ -1 23.90 87.40 TC 30 23.77 87.39 1 4 10
1877 NI BB 09:00:00 TS 24.03 87.41 0 0 _________PP___ -1 24.09 87.41 TC 30 23.97 87.42 1 4 2
1877 NI BB 12:00:00 TS 24.22 87.41 0 0 _________OP___ -1 24.30 87.40 TC 30 24.14 87.42 1 4 358
1877 NI BB 15:00:00 TS 24.42 87.40 0 0 _________PO___ -1 24.55 87.40 TC 30 24.30 87.40 1 4 0
1877 NI BB 18:00:00 TS 24.62 87.39 0 0 _________OP___ -1 24.80 87.40 TC 30 24.49 87.39 1 4 0
1877 NI BB 21:00:00 TS 24.83 87.39 0 0 _________PP___ -1 25.01 87.40 TC 30 24.71 87.39 1 4 4
1877 NI BB 1877-05-22 00:00:00 TS 25.03 87.40 0 0 _________OP___ -1 25.20 87.40 TC 30 24.95 87.39 1 4 0
1877 NI BB 03:00:00 NR 25.20 87.40 0 __________O___ -1 TC 25.20 87.40 1 3 9